sensor_id;sensor_type;location;lat;lon;timestamp;pressure;altitude;pressure_sealevel;temperature;humidity
69219;BME280;56232;53.384;-2.732;2023-03-14T00:02:22;98438.75;;;4.77;44.69
69219;BME280;56232;53.384;-2.732;2023-03-14T00:04:48;98444.71;;;4.60;44.94
69219;BME280;56232;53.384;-2.732;2023-03-14T00:07:14;98451.64;;;5.13;45.05
69219;BME280;56232;53.384;-2.732;2023-03-14T00:09:39;98456.33;;;5.10;44.95
69219;BME280;56232;53.384;-2.732;2023-03-14T00:12:06;98459.79;;;3.86;45.05
69219;BME280;56232;53.384;-2.732;2023-03-14T00:14:31;98461.05;;;4.22;44.98
69219;BME280;56232;53.384;-2.732;2023-03-14T00:16:57;98470.68;;;4.99;45.16
69219;BME280;56232;53.384;-2.732;2023-03-14T00:19:23;98472.73;;;4.59;44.95
69219;BME280;56232;53.384;-2.732;2023-03-14T00:21:53;98481.23;;;4.82;45.04
69219;BME280;56232;53.384;-2.732;2023-03-14T00:24:15;98484.80;;;5.73;44.73
69219;BME280;56232;53.384;-2.732;2023-03-14T00:26:40;98492.96;;;4.78;44.35
69219;BME280;56232;53.384;-2.732;2023-03-14T00:29:05;98503.97;;;4.95;44.10
69219;BME280;56232;53.384;-2.732;2023-03-14T00:31:31;98512.67;;;4.52;44.25
69219;BME280;56232;53.384;-2.732;2023-03-14T00:33:57;98519.92;;;6.39;43.95
69219;BME280;56232;53.384;-2.732;2023-03-14T00:36:23;98527.75;;;4.84;43.83
69219;BME280;56232;53.384;-2.732;2023-03-14T00:38:50;98540.74;;;4.39;43.68
69219;BME280;56232;53.384;-2.732;2023-03-14T00:41:17;98547.79;;;5.39;43.05
69219;BME280;56232;53.384;-2.732;2023-03-14T00:43:40;98559.34;;;4.77;44.07
69219;BME280;56232;53.384;-2.732;2023-03-14T00:46:06;98568.11;;;4.54;44.06
69219;BME280;56232;53.384;-2.732;2023-03-14T00:48:32;98582.01;;;5.10;44.76
69219;BME280;56232;53.384;-2.732;2023-03-14T00:50:57;98592.40;;;3.71;44.83
69219;BME280;56232;53.384;-2.732;2023-03-14T00:53:23;98605.10;;;4.49;45.45
69219;BME280;56232;53.384;-2.732;2023-03-14T00:55:50;98618.38;;;3.78;45.67
69219;BME280;56232;53.384;-2.732;2023-03-14T00:58:17;98629.66;;;3.81;45.50
69219;BME280;56232;53.384;-2.732;2023-03-14T01:00:41;98641.26;;;3.66;45.96
69219;BME280;56232;53.384;-2.732;2023-03-14T01:03:07;98651.02;;;4.41;45.67
69219;BME280;56232;53.384;-2.732;2023-03-14T01:05:32;98659.25;;;3.78;45.62
69219;BME280;56232;53.384;-2.732;2023-03-14T01:07:58;98661.94;;;4.32;45.52
69219;BME280;56232;53.384;-2.732;2023-03-14T01:10:24;98674.38;;;3.85;45.46
69219;BME280;56232;53.384;-2.732;2023-03-14T01:12:49;98679.32;;;3.39;46.18
69219;BME280;56232;53.384;-2.732;2023-03-14T01:15:16;98691.69;;;3.53;46.34
69219;BME280;56232;53.384;-2.732;2023-03-14T01:17:41;98698.63;;;2.85;46.71
69219;BME280;56232;53.384;-2.732;2023-03-14T01:20:09;98704.04;;;3.59;46.96
69219;BME280;56232;53.384;-2.732;2023-03-14T01:22:32;98718.63;;;2.59;47.00
69219;BME280;56232;53.384;-2.732;2023-03-14T01:24:58;98724.88;;;2.89;47.11
69219;BME280;56232;53.384;-2.732;2023-03-14T01:27:24;98734.62;;;2.74;47.28
69219;BME280;56232;53.384;-2.732;2023-03-14T01:29:50;98739.27;;;2.71;47.29
69219;BME280;56232;53.384;-2.732;2023-03-14T01:32:16;98747.68;;;3.04;47.31
69219;BME280;56232;53.384;-2.732;2023-03-14T01:34:41;98754.07;;;2.53;47.33
69219;BME280;56232;53.384;-2.732;2023-03-14T01:37:07;98761.67;;;2.46;47.34
69219;BME280;56232;53.384;-2.732;2023-03-14T01:39:33;98770.42;;;2.98;47.44
69219;BME280;56232;53.384;-2.732;2023-03-14T01:42:00;98773.78;;;2.51;47.19
69219;BME280;56232;53.384;-2.732;2023-03-14T01:44:25;98787.56;;;2.79;47.25
69219;BME280;56232;53.384;-2.732;2023-03-14T01:46:50;98795.65;;;2.69;47.50
69219;BME280;56232;53.384;-2.732;2023-03-14T01:49:23;98798.81;;;2.66;47.60
69219;BME280;56232;53.384;-2.732;2023-03-14T01:51:46;98812.83;;;2.62;47.45
69219;BME280;56232;53.384;-2.732;2023-03-14T01:54:14;98821.15;;;2.62;47.32
69219;BME280;56232;53.384;-2.732;2023-03-14T01:56:35;98830.64;;;2.27;47.49
69219;BME280;56232;53.384;-2.732;2023-03-14T01:59:01;98836.92;;;2.35;47.37
69219;BME280;56232;53.384;-2.732;2023-03-14T02:01:26;98845.78;;;2.39;46.95
69219;BME280;56232;53.384;-2.732;2023-03-14T02:03:54;98850.32;;;2.57;46.92
69219;BME280;56232;53.384;-2.732;2023-03-14T02:06:21;98854.14;;;2.31;47.03
69219;BME280;56232;53.384;-2.732;2023-03-14T02:08:43;98865.45;;;1.99;47.75
69219;BME280;56232;53.384;-2.732;2023-03-14T02:11:09;98870.24;;;1.92;47.68
69219;BME280;56232;53.384;-2.732;2023-03-14T02:13:34;98874.46;;;1.70;47.82
69219;BME280;56232;53.384;-2.732;2023-03-14T02:16:00;98881.77;;;2.50;48.16
69219;BME280;56232;53.384;-2.732;2023-03-14T02:18:26;98900.31;;;1.17;48.50
69219;BME280;56232;53.384;-2.732;2023-03-14T02:20:57;98899.59;;;1.66;48.49
69219;BME280;56232;53.384;-2.732;2023-03-14T02:23:23;98899.82;;;2.23;48.51
69219;BME280;56232;53.384;-2.732;2023-03-14T02:25:48;98909.55;;;2.33;48.70
69219;BME280;56232;53.384;-2.732;2023-03-14T02:28:10;98916.27;;;1.40;48.39
69219;BME280;56232;53.384;-2.732;2023-03-14T02:30:35;98921.84;;;2.31;48.34
69219;BME280;56232;53.384;-2.732;2023-03-14T02:33:04;98926.07;;;2.31;48.82
69219;BME280;56232;53.384;-2.732;2023-03-14T02:35:31;98932.08;;;1.94;48.92
69219;BME280;56232;53.384;-2.732;2023-03-14T02:37:56;98943.74;;;2.85;48.74
69219;BME280;56232;53.384;-2.732;2023-03-14T02:40:18;98952.21;;;1.93;48.48
69219;BME280;56232;53.384;-2.732;2023-03-14T02:42:44;98960.81;;;2.17;48.55
69219;BME280;56232;53.384;-2.732;2023-03-14T02:47:39;98976.36;;;2.82;48.08
69219;BME280;56232;53.384;-2.732;2023-03-14T02:50:08;98978.20;;;2.20;48.06
69219;BME280;56232;53.384;-2.732;2023-03-14T02:52:27;98983.93;;;2.18;48.02
69219;BME280;56232;53.384;-2.732;2023-03-14T02:54:53;98989.29;;;2.16;47.52
69219;BME280;56232;53.384;-2.732;2023-03-14T02:57:19;98991.84;;;2.58;48.14
69219;BME280;56232;53.384;-2.732;2023-03-14T02:59:45;98996.98;;;2.00;48.18
69219;BME280;56232;53.384;-2.732;2023-03-14T03:02:11;99006.05;;;2.09;47.69
69219;BME280;56232;53.384;-2.732;2023-03-14T03:04:36;99016.34;;;2.14;47.94
69219;BME280;56232;53.384;-2.732;2023-03-14T03:07:02;99023.09;;;2.08;47.90
69219;BME280;56232;53.384;-2.732;2023-03-14T03:09:28;99031.31;;;2.09;47.63
69219;BME280;56232;53.384;-2.732;2023-03-14T03:11:54;99041.85;;;2.15;47.65
69219;BME280;56232;53.384;-2.732;2023-03-14T03:14:20;99050.37;;;2.11;47.62
69219;BME280;56232;53.384;-2.732;2023-03-14T03:16:45;99058.36;;;2.61;47.57
69219;BME280;56232;53.384;-2.732;2023-03-14T03:19:11;99058.22;;;1.44;47.67
69219;BME280;56232;53.384;-2.732;2023-03-14T03:21:37;99064.96;;;1.94;47.64
69219;BME280;56232;53.384;-2.732;2023-03-14T03:24:03;99073.65;;;2.49;47.78
69219;BME280;56232;53.384;-2.732;2023-03-14T03:26:29;99078.13;;;1.96;47.36
69219;BME280;56232;53.384;-2.732;2023-03-14T03:28:55;99084.07;;;1.96;47.50
69219;BME280;56232;53.384;-2.732;2023-03-14T03:31:21;99091.34;;;2.51;47.28
69219;BME280;56232;53.384;-2.732;2023-03-14T03:33:46;99102.00;;;1.88;47.49
69219;BME280;56232;53.384;-2.732;2023-03-14T03:36:12;99107.25;;;1.43;47.38
69219;BME280;56232;53.384;-2.732;2023-03-14T03:38:38;99119.32;;;1.37;47.42
69219;BME280;56232;53.384;-2.732;2023-03-14T03:41:05;99126.15;;;1.79;47.59
69219;BME280;56232;53.384;-2.732;2023-03-14T03:43:29;99139.01;;;1.35;48.28
69219;BME280;56232;53.384;-2.732;2023-03-14T03:45:55;99142.91;;;2.14;47.27
69219;BME280;56232;53.384;-2.732;2023-03-14T03:48:21;99152.24;;;2.92;47.30
69219;BME280;56232;53.384;-2.732;2023-03-14T03:50:47;99160.16;;;2.16;47.34
69219;BME280;56232;53.384;-2.732;2023-03-14T03:53:13;99160.63;;;1.30;47.27
69219;BME280;56232;53.384;-2.732;2023-03-14T03:55:40;99169.14;;;1.63;47.83
69219;BME280;56232;53.384;-2.732;2023-03-14T03:58:04;99175.05;;;1.64;47.84
69219;BME280;56232;53.384;-2.732;2023-03-14T04:00:30;99179.83;;;1.11;48.09
69219;BME280;56232;53.384;-2.732;2023-03-14T04:02:56;99189.80;;;2.30;47.64
69219;BME280;56232;53.384;-2.732;2023-03-14T04:05:21;99199.29;;;2.17;48.01
69219;BME280;56232;53.384;-2.732;2023-03-14T04:07:47;99206.59;;;1.15;47.50
69219;BME280;56232;53.384;-2.732;2023-03-14T04:10:13;99214.71;;;2.19;48.10
69219;BME280;56232;53.384;-2.732;2023-03-14T04:12:39;99225.76;;;2.14;47.86
69219;BME280;56232;53.384;-2.732;2023-03-14T04:15:06;99236.68;;;1.56;47.76
69219;BME280;56232;53.384;-2.732;2023-03-14T04:17:30;99245.84;;;2.02;47.74
69219;BME280;56232;53.384;-2.732;2023-03-14T04:19:56;99255.46;;;1.93;47.45
69219;BME280;56232;53.384;-2.732;2023-03-14T04:22:22;99266.73;;;1.61;47.71
69219;BME280;56232;53.384;-2.732;2023-03-14T04:24:48;99281.36;;;0.91;48.15
69219;BME280;56232;53.384;-2.732;2023-03-14T04:27:15;99289.67;;;1.28;48.06
69219;BME280;56232;53.384;-2.732;2023-03-14T04:29:38;99293.47;;;1.12;48.12
69219;BME280;56232;53.384;-2.732;2023-03-14T04:32:04;99297.69;;;0.59;48.19
69219;BME280;56232;53.384;-2.732;2023-03-14T04:34:30;99311.54;;;1.02;48.23
69219;BME280;56232;53.384;-2.732;2023-03-14T04:36:56;99319.60;;;0.93;48.27
69219;BME280;56232;53.384;-2.732;2023-03-14T04:39:21;99327.87;;;0.80;48.30
69219;BME280;56232;53.384;-2.732;2023-03-14T04:41:47;99334.08;;;0.60;48.25
69219;BME280;56232;53.384;-2.732;2023-03-14T04:44:12;99343.23;;;0.99;48.70
69219;BME280;56232;53.384;-2.732;2023-03-14T04:46:38;99347.49;;;0.49;48.52
69219;BME280;56232;53.384;-2.732;2023-03-14T04:49:03;99351.50;;;1.15;48.51
69219;BME280;56232;53.384;-2.732;2023-03-14T04:51:30;99358.52;;;0.71;48.74
69219;BME280;56232;53.384;-2.732;2023-03-14T04:53:54;99358.24;;;0.88;48.46
69219;BME280;56232;53.384;-2.732;2023-03-14T04:56:20;99367.25;;;1.01;48.60
69219;BME280;56232;53.384;-2.732;2023-03-14T04:58:44;99362.96;;;0.99;48.82
69219;BME280;56232;53.384;-2.732;2023-03-14T05:01:10;99371.91;;;1.17;48.93
69219;BME280;56232;53.384;-2.732;2023-03-14T05:03:35;99383.15;;;1.53;48.46
69219;BME280;56232;53.384;-2.732;2023-03-14T05:06:01;99392.45;;;1.57;48.38
69219;BME280;56232;53.384;-2.732;2023-03-14T05:08:27;99399.16;;;1.21;48.72
69219;BME280;56232;53.384;-2.732;2023-03-14T05:10:53;99401.34;;;1.81;48.15
69219;BME280;56232;53.384;-2.732;2023-03-14T05:13:18;99404.63;;;1.84;48.62
69219;BME280;56232;53.384;-2.732;2023-03-14T05:15:43;99409.88;;;1.51;48.36
69219;BME280;56232;53.384;-2.732;2023-03-14T05:18:09;99412.19;;;1.64;48.62
69219;BME280;56232;53.384;-2.732;2023-03-14T05:20:35;99416.15;;;2.31;48.09
69219;BME280;56232;53.384;-2.732;2023-03-14T05:23:00;99424.99;;;1.50;48.35
69219;BME280;56232;53.384;-2.732;2023-03-14T05:25:25;99425.53;;;1.75;48.46
69219;BME280;56232;53.384;-2.732;2023-03-14T05:27:53;99427.97;;;2.01;47.99
69219;BME280;56232;53.384;-2.732;2023-03-14T05:30:17;99433.23;;;2.05;48.22
69219;BME280;56232;53.384;-2.732;2023-03-14T05:32:42;99439.77;;;2.21;48.32
69219;BME280;56232;53.384;-2.732;2023-03-14T05:35:08;99449.61;;;2.33;48.22
69219;BME280;56232;53.384;-2.732;2023-03-14T05:37:33;99471.48;;;2.33;48.18
69219;BME280;56232;53.384;-2.732;2023-03-14T05:39:59;99486.60;;;2.20;47.43
69219;BME280;56232;53.384;-2.732;2023-03-14T05:42:25;99500.89;;;1.93;47.62
69219;BME280;56232;53.384;-2.732;2023-03-14T05:44:51;99517.12;;;1.70;47.49
69219;BME280;56232;53.384;-2.732;2023-03-14T05:47:17;99533.06;;;2.59;47.41
69219;BME280;56232;53.384;-2.732;2023-03-14T05:49:42;99545.56;;;2.19;47.61
69219;BME280;56232;53.384;-2.732;2023-03-14T05:52:08;99552.71;;;1.66;47.30
69219;BME280;56232;53.384;-2.732;2023-03-14T05:54:34;99566.91;;;2.16;46.94
69219;BME280;56232;53.384;-2.732;2023-03-14T05:56:59;99576.52;;;1.30;46.71
69219;BME280;56232;53.384;-2.732;2023-03-14T05:59:25;99583.57;;;2.29;47.09
69219;BME280;56232;53.384;-2.732;2023-03-14T06:01:50;99586.10;;;1.87;46.92
69219;BME280;56232;53.384;-2.732;2023-03-14T06:04:17;99585.92;;;1.12;46.59
69219;BME280;56232;53.384;-2.732;2023-03-14T06:06:42;99593.07;;;1.42;47.00
69219;BME280;56232;53.384;-2.732;2023-03-14T06:09:07;99596.44;;;0.71;46.95
69219;BME280;56232;53.384;-2.732;2023-03-14T06:11:31;99601.20;;;1.66;47.08
69219;BME280;56232;53.384;-2.732;2023-03-14T06:13:57;99611.15;;;0.79;47.19
69219;BME280;56232;53.384;-2.732;2023-03-14T06:16:23;99619.62;;;1.06;47.00
69219;BME280;56232;53.384;-2.732;2023-03-14T06:18:49;99630.06;;;0.82;47.26
69219;BME280;56232;53.384;-2.732;2023-03-14T06:21:15;99632.16;;;0.78;47.55
69219;BME280;56232;53.384;-2.732;2023-03-14T06:23:40;99628.17;;;1.19;47.53
69219;BME280;56232;53.384;-2.732;2023-03-14T06:26:06;99623.87;;;0.58;47.54
69219;BME280;56232;53.384;-2.732;2023-03-14T06:28:31;99632.89;;;1.01;47.72
69219;BME280;56232;53.384;-2.732;2023-03-14T06:30:56;99633.91;;;0.56;47.68
69219;BME280;56232;53.384;-2.732;2023-03-14T06:33:22;99647.26;;;1.10;47.57
69219;BME280;56232;53.384;-2.732;2023-03-14T06:35:47;99660.65;;;0.58;47.39
69219;BME280;56232;53.384;-2.732;2023-03-14T06:38:12;99670.28;;;1.10;47.33
69219;BME280;56232;53.384;-2.732;2023-03-14T06:40:38;99675.40;;;0.69;47.31
69219;BME280;56232;53.384;-2.732;2023-03-14T06:43:04;99682.34;;;1.26;47.25
69219;BME280;56232;53.384;-2.732;2023-03-14T06:45:30;99684.67;;;0.89;47.21
69219;BME280;56232;53.384;-2.732;2023-03-14T06:47:55;99694.52;;;1.09;47.16
69219;BME280;56232;53.384;-2.732;2023-03-14T06:50:20;99704.42;;;1.25;47.07
69219;BME280;56232;53.384;-2.732;2023-03-14T06:52:51;99715.73;;;1.45;46.96
69219;BME280;56232;53.384;-2.732;2023-03-14T06:55:12;99723.24;;;1.59;46.79
69219;BME280;56232;53.384;-2.732;2023-03-14T06:57:38;99730.35;;;1.65;46.69
69219;BME280;56232;53.384;-2.732;2023-03-14T07:00:04;99741.83;;;1.33;46.82
69219;BME280;56232;53.384;-2.732;2023-03-14T07:02:29;99751.48;;;1.48;46.66
69219;BME280;56232;53.384;-2.732;2023-03-14T07:04:54;99752.11;;;0.94;46.73
69219;BME280;56232;53.384;-2.732;2023-03-14T07:07:20;99757.16;;;2.19;46.90
69219;BME280;56232;53.384;-2.732;2023-03-14T07:09:45;99760.60;;;2.35;46.00
69219;BME280;56232;53.384;-2.732;2023-03-14T07:12:11;99768.34;;;1.42;46.73
69219;BME280;56232;53.384;-2.732;2023-03-14T07:14:36;99777.30;;;1.60;46.38
69219;BME280;56232;53.384;-2.732;2023-03-14T07:17:01;99785.50;;;1.80;46.60
69219;BME280;56232;53.384;-2.732;2023-03-14T07:19:27;99793.97;;;1.95;46.27
69219;BME280;56232;53.384;-2.732;2023-03-14T07:21:53;99800.73;;;2.03;46.05
69219;BME280;56232;53.384;-2.732;2023-03-14T07:24:19;99800.04;;;2.08;46.58
69219;BME280;56232;53.384;-2.732;2023-03-14T07:26:44;99801.67;;;2.37;46.50
69219;BME280;56232;53.384;-2.732;2023-03-14T07:29:10;99809.14;;;2.64;46.48
69219;BME280;56232;53.384;-2.732;2023-03-14T07:31:35;99816.94;;;3.04;46.45
69219;BME280;56232;53.384;-2.732;2023-03-14T07:34:00;99822.06;;;2.34;46.46
69219;BME280;56232;53.384;-2.732;2023-03-14T07:36:26;99828.03;;;3.11;46.10
69219;BME280;56232;53.384;-2.732;2023-03-14T07:38:51;99835.07;;;3.62;46.19
69219;BME280;56232;53.384;-2.732;2023-03-14T07:41:18;99831.79;;;4.76;46.08
69219;BME280;56232;53.384;-2.732;2023-03-14T07:43:43;99837.49;;;5.94;46.02
69219;BME280;56232;53.384;-2.732;2023-03-14T07:46:08;99843.21;;;7.28;46.04
69219;BME280;56232;53.384;-2.732;2023-03-14T07:48:34;99852.14;;;6.88;45.03
69219;BME280;56232;53.384;-2.732;2023-03-14T07:51:00;99860.96;;;7.96;43.59
69219;BME280;56232;53.384;-2.732;2023-03-14T07:53:26;99865.08;;;7.53;44.51
69219;BME280;56232;53.384;-2.732;2023-03-14T07:55:52;99863.64;;;8.86;44.08
69219;BME280;56232;53.384;-2.732;2023-03-14T07:58:17;99862.89;;;9.35;43.61
69219;BME280;56232;53.384;-2.732;2023-03-14T08:00:43;99867.60;;;8.51;42.71
69219;BME280;56232;53.384;-2.732;2023-03-14T08:03:08;99871.36;;;8.96;43.12
69219;BME280;56232;53.384;-2.732;2023-03-14T08:05:35;99872.57;;;11.03;42.58
69219;BME280;56232;53.384;-2.732;2023-03-14T08:07:59;99878.99;;;13.73;42.24
69219;BME280;56232;53.384;-2.732;2023-03-14T08:10:25;99880.59;;;14.70;41.65
69219;BME280;56232;53.384;-2.732;2023-03-14T08:12:54;99881.06;;;16.56;40.99
69219;BME280;56232;53.384;-2.732;2023-03-14T08:15:22;99884.30;;;17.63;39.86
69219;BME280;56232;53.384;-2.732;2023-03-14T08:17:42;99890.98;;;16.34;40.05
69219;BME280;56232;53.384;-2.732;2023-03-14T08:20:09;99899.84;;;15.60;39.71
69219;BME280;56232;53.384;-2.732;2023-03-14T08:22:33;99909.95;;;16.75;39.24
69219;BME280;56232;53.384;-2.732;2023-03-14T08:24:59;99920.03;;;15.82;36.26
69219;BME280;56232;53.384;-2.732;2023-03-14T08:27:25;99927.23;;;15.93;36.64
69219;BME280;56232;53.384;-2.732;2023-03-14T08:29:51;99933.49;;;17.34;36.91
69219;BME280;56232;53.384;-2.732;2023-03-14T08:32:17;99934.02;;;17.42;37.80
69219;BME280;56232;53.384;-2.732;2023-03-14T08:34:42;99935.01;;;16.63;36.08
69219;BME280;56232;53.384;-2.732;2023-03-14T08:37:07;99937.14;;;15.76;37.40
69219;BME280;56232;53.384;-2.732;2023-03-14T08:39:32;99940.23;;;15.79;38.05
69219;BME280;56232;53.384;-2.732;2023-03-14T08:41:58;99940.62;;;16.68;36.98
69219;BME280;56232;53.384;-2.732;2023-03-14T08:44:23;99947.25;;;17.60;35.91
69219;BME280;56232;53.384;-2.732;2023-03-14T08:46:49;99956.61;;;17.20;34.92
69219;BME280;56232;53.384;-2.732;2023-03-14T08:49:17;99962.64;;;17.39;35.33
69219;BME280;56232;53.384;-2.732;2023-03-14T08:51:40;99973.92;;;17.89;33.72
69219;BME280;56232;53.384;-2.732;2023-03-14T08:54:08;99979.45;;;17.96;32.29
69219;BME280;56232;53.384;-2.732;2023-03-14T08:56:32;99976.76;;;18.48;33.71
69219;BME280;56232;53.384;-2.732;2023-03-14T08:58:58;99977.35;;;18.94;34.00
69219;BME280;56232;53.384;-2.732;2023-03-14T09:01:23;99977.35;;;18.87;34.73
69219;BME280;56232;53.384;-2.732;2023-03-14T09:03:49;99979.97;;;18.54;33.84
69219;BME280;56232;53.384;-2.732;2023-03-14T09:06:15;99985.42;;;18.34;32.32
69219;BME280;56232;53.384;-2.732;2023-03-14T09:08:40;100000.42;;;19.57;32.20
69219;BME280;56232;53.384;-2.732;2023-03-14T09:11:07;100005.84;;;18.56;30.88
69219;BME280;56232;53.384;-2.732;2023-03-14T09:13:31;100014.89;;;18.34;31.64
69219;BME280;56232;53.384;-2.732;2023-03-14T09:15:57;100022.81;;;17.97;31.85
69219;BME280;56232;53.384;-2.732;2023-03-14T09:18:22;100025.46;;;18.62;31.80
69219;BME280;56232;53.384;-2.732;2023-03-14T09:20:48;100025.93;;;19.23;31.90
69219;BME280;56232;53.384;-2.732;2023-03-14T09:23:14;100029.18;;;19.09;33.00
69219;BME280;56232;53.384;-2.732;2023-03-14T09:25:39;100035.14;;;18.69;31.88
69219;BME280;56232;53.384;-2.732;2023-03-14T09:28:05;100039.05;;;18.92;31.40
69219;BME280;56232;53.384;-2.732;2023-03-14T09:30:31;100046.45;;;19.15;31.04
69219;BME280;56232;53.384;-2.732;2023-03-14T09:32:56;100055.34;;;18.51;30.40
69219;BME280;56232;53.384;-2.732;2023-03-14T09:35:22;100060.85;;;18.46;31.85
69219;BME280;56232;53.384;-2.732;2023-03-14T09:37:48;100064.89;;;18.61;30.37
69219;BME280;56232;53.384;-2.732;2023-03-14T09:40:16;100080.91;;;16.42;30.03
69219;BME280;56232;53.384;-2.732;2023-03-14T09:42:38;100088.44;;;14.78;29.75
69219;BME280;56232;53.384;-2.732;2023-03-14T09:45:09;100098.09;;;13.10;32.08
69219;BME280;56232;53.384;-2.732;2023-03-14T09:47:30;100093.51;;;12.30;32.64
69219;BME280;56232;53.384;-2.732;2023-03-14T09:49:55;100104.19;;;11.84;33.20
69219;BME280;56232;53.384;-2.732;2023-03-14T09:52:23;100096.25;;;12.85;32.21
69219;BME280;56232;53.384;-2.732;2023-03-14T09:54:49;100097.98;;;13.29;33.29
69219;BME280;56232;53.384;-2.732;2023-03-14T09:57:14;100094.45;;;14.64;33.32
69219;BME280;56232;53.384;-2.732;2023-03-14T09:59:39;100098.71;;;15.87;31.08
69219;BME280;56232;53.384;-2.732;2023-03-14T10:02:14;100100.17;;;14.27;31.53
69219;BME280;56232;53.384;-2.732;2023-03-14T10:04:29;100101.41;;;14.16;30.14
69219;BME280;56232;53.384;-2.732;2023-03-14T10:06:54;100105.04;;;14.26;32.12
69219;BME280;56232;53.384;-2.732;2023-03-14T10:09:22;100106.02;;;14.84;30.69
69219;BME280;56232;53.384;-2.732;2023-03-14T10:11:45;100103.92;;;14.66;29.75
69219;BME280;56232;53.384;-2.732;2023-03-14T10:14:12;100109.52;;;13.94;32.71
69219;BME280;56232;53.384;-2.732;2023-03-14T10:16:41;100115.24;;;13.95;31.96
69219;BME280;56232;53.384;-2.732;2023-03-14T10:19:04;100117.11;;;12.93;32.32
69219;BME280;56232;53.384;-2.732;2023-03-14T10:21:29;100127.35;;;14.40;31.44
69219;BME280;56232;53.384;-2.732;2023-03-14T10:23:53;100123.83;;;12.87;33.00
69219;BME280;56232;53.384;-2.732;2023-03-14T10:26:23;100127.11;;;13.48;34.86
69219;BME280;56232;53.384;-2.732;2023-03-14T10:28:46;100134.95;;;11.88;36.27
69219;BME280;56232;53.384;-2.732;2023-03-14T10:31:10;100134.24;;;11.12;36.62
69219;BME280;56232;53.384;-2.732;2023-03-14T10:33:37;100135.21;;;11.16;36.12
69219;BME280;56232;53.384;-2.732;2023-03-14T10:36:03;100138.62;;;10.41;36.62
69219;BME280;56232;53.384;-2.732;2023-03-14T10:38:28;100153.59;;;10.21;35.67
69219;BME280;56232;53.384;-2.732;2023-03-14T10:40:54;100152.14;;;9.60;37.09
69219;BME280;56232;53.384;-2.732;2023-03-14T10:43:21;100152.10;;;10.65;37.13
69219;BME280;56232;53.384;-2.732;2023-03-14T10:45:47;100160.62;;;9.94;37.42
69219;BME280;56232;53.384;-2.732;2023-03-14T10:48:19;100165.38;;;9.59;36.28
69219;BME280;56232;53.384;-2.732;2023-03-14T10:50:36;100155.66;;;9.20;37.95
69219;BME280;56232;53.384;-2.732;2023-03-14T10:53:02;100153.01;;;9.31;36.70
69219;BME280;56232;53.384;-2.732;2023-03-14T10:55:27;100162.02;;;9.45;38.48
69219;BME280;56232;53.384;-2.732;2023-03-14T10:57:52;100168.60;;;8.68;38.19
69219;BME280;56232;53.384;-2.732;2023-03-14T11:00:20;100172.52;;;9.00;38.39
69219;BME280;56232;53.384;-2.732;2023-03-14T11:02:54;100178.81;;;7.71;38.79
69219;BME280;56232;53.384;-2.732;2023-03-14T11:05:20;100181.13;;;7.36;40.53
69219;BME280;56232;53.384;-2.732;2023-03-14T11:07:39;100190.27;;;7.09;39.67
69219;BME280;56232;53.384;-2.732;2023-03-14T11:10:09;100188.94;;;7.34;40.16
69219;BME280;56232;53.384;-2.732;2023-03-14T11:12:36;100193.83;;;6.54;39.94
69219;BME280;56232;53.384;-2.732;2023-03-14T11:14:55;100200.17;;;6.32;41.25
69219;BME280;56232;53.384;-2.732;2023-03-14T11:17:24;100206.76;;;6.74;39.83
69219;BME280;56232;53.384;-2.732;2023-03-14T11:19:52;100235.55;;;5.78;40.50
69219;BME280;56232;53.384;-2.732;2023-03-14T11:22:18;100248.21;;;5.99;40.02
69219;BME280;56232;53.384;-2.732;2023-03-14T11:24:47;100226.96;;;6.00;40.83
69219;BME280;56232;53.384;-2.732;2023-03-14T11:27:08;100239.61;;;5.91;40.43
69219;BME280;56232;53.384;-2.732;2023-03-14T11:29:33;100240.18;;;6.69;40.18
69219;BME280;56232;53.384;-2.732;2023-03-14T11:31:55;100241.50;;;6.54;40.33
69219;BME280;56232;53.384;-2.732;2023-03-14T11:34:26;100245.27;;;5.86;40.10
69219;BME280;56232;53.384;-2.732;2023-03-14T11:36:51;100245.17;;;5.73;40.82
69219;BME280;56232;53.384;-2.732;2023-03-14T11:39:13;100247.01;;;5.92;41.40
69219;BME280;56232;53.384;-2.732;2023-03-14T11:41:38;100252.82;;;6.31;40.34
69219;BME280;56232;53.384;-2.732;2023-03-14T11:44:10;100249.54;;;7.45;40.47
69219;BME280;56232;53.384;-2.732;2023-03-14T11:46:29;100249.86;;;7.54;39.22
69219;BME280;56232;53.384;-2.732;2023-03-14T11:48:59;100247.14;;;8.47;38.83
69219;BME280;56232;53.384;-2.732;2023-03-14T11:51:22;100242.90;;;8.99;38.55
69219;BME280;56232;53.384;-2.732;2023-03-14T11:53:50;100246.27;;;9.95;37.70
69219;BME280;56232;53.384;-2.732;2023-03-14T11:56:14;100239.39;;;9.77;37.80
69219;BME280;56232;53.384;-2.732;2023-03-14T11:58:38;100239.85;;;9.82;38.49
69219;BME280;56232;53.384;-2.732;2023-03-14T12:01:06;100243.98;;;9.34;37.89
69219;BME280;56232;53.384;-2.732;2023-03-14T12:03:32;100233.46;;;9.52;38.76
69219;BME280;56232;53.384;-2.732;2023-03-14T12:05:59;100247.29;;;9.27;39.79
69219;BME280;56232;53.384;-2.732;2023-03-14T12:10:47;100257.32;;;8.55;37.06
69219;BME280;56232;53.384;-2.732;2023-03-14T12:13:11;100256.49;;;8.07;37.93
69219;BME280;56232;53.384;-2.732;2023-03-14T12:15:39;100259.29;;;7.36;38.87
69219;BME280;56232;53.384;-2.732;2023-03-14T12:18:01;100259.28;;;8.43;39.65
69219;BME280;56232;53.384;-2.732;2023-03-14T12:20:26;100256.92;;;9.20;39.07
69219;BME280;56232;53.384;-2.732;2023-03-14T12:22:54;100263.15;;;10.51;38.66
69219;BME280;56232;53.384;-2.732;2023-03-14T12:25:20;100266.35;;;10.34;36.29
69219;BME280;56232;53.384;-2.732;2023-03-14T12:27:48;100264.96;;;10.01;36.77
69219;BME280;56232;53.384;-2.732;2023-03-14T12:30:17;100266.94;;;10.07;36.76
69219;BME280;56232;53.384;-2.732;2023-03-14T12:32:34;100261.55;;;9.69;37.57
69219;BME280;56232;53.384;-2.732;2023-03-14T12:35:07;100253.40;;;9.49;37.67
69219;BME280;56232;53.384;-2.732;2023-03-14T12:37:30;100254.56;;;11.28;37.36
69219;BME280;56232;53.384;-2.732;2023-03-14T12:42:22;100251.99;;;10.08;37.52
69219;BME280;56232;53.384;-2.732;2023-03-14T12:44:45;100259.85;;;9.08;38.80
69219;BME280;56232;53.384;-2.732;2023-03-14T12:49:36;100252.70;;;10.38;39.25
69219;BME280;56232;53.384;-2.732;2023-03-14T12:52:00;100270.27;;;8.76;39.96
69219;BME280;56232;53.384;-2.732;2023-03-14T12:54:33;100272.17;;;9.03;39.07
69219;BME280;56232;53.384;-2.732;2023-03-14T12:56:57;100265.69;;;8.20;40.11